sensor_id;sensor_type;location;lat;lon;timestamp;pressure;altitude;pressure_sealevel;temperature;humidity
57568;BME280;43403;51.948;5.922;2022-12-18T00:02:08;102852.94;;;-3.31;100.00
57568;BME280;43403;51.948;5.922;2022-12-18T00:04:37;102854.69;;;-3.38;100.00
57568;BME280;43403;51.948;5.922;2022-12-18T00:07:03;102853.84;;;-3.43;100.00
57568;BME280;43403;51.948;5.922;2022-12-18T00:09:29;102840.19;;;-3.48;100.00
57568;BME280;43403;51.948;5.922;2022-12-18T00:12:06;102835.09;;;-3.54;100.00
57568;BME280;43403;51.948;5.922;2022-12-18T00:14:41;102831.69;;;-3.60;100.00
57568;BME280;43403;51.948;5.922;2022-12-18T00:17:10;102830.84;;;-3.63;100.00
57568;BME280;43403;51.948;5.922;2022-12-18T00:19:37;102831.75;;;-3.72;100.00
57568;BME280;43403;51.948;5.922;2022-12-18T00:22:03;102839.44;;;-3.72;100.00
57568;BME280;43403;51.948;5.922;2022-12-18T00:24:30;102836.03;;;-3.75;100.00
57568;BME280;43403;51.948;5.922;2022-12-18T00:26:56;102828.31;;;-3.75;100.00
57568;BME280;43403;51.948;5.922;2022-12-18T00:29:22;102842.88;;;-3.76;100.00
57568;BME280;43403;51.948;5.922;2022-12-18T00:31:49;102835.16;;;-3.81;100.00
57568;BME280;43403;51.948;5.922;2022-12-18T00:34:15;102834.31;;;-3.80;100.00
57568;BME280;43403;51.948;5.922;2022-12-18T00:36:42;102821.47;;;-3.77;100.00
57568;BME280;43403;51.948;5.922;2022-12-18T00:39:10;102820.59;;;-3.69;100.00
57568;BME280;43403;51.948;5.922;2022-12-18T00:41:36;102812.06;;;-3.71;100.00
57568;BME280;43403;51.948;5.922;2022-12-18T00:44:21;102815.47;;;-3.69;100.00
57568;BME280;43403;51.948;5.922;2022-12-18T00:46:48;102824.88;;;-3.74;100.00
57568;BME280;43403;51.948;5.922;2022-12-18T00:49:16;102830.88;;;-3.75;100.00
57568;BME280;43403;51.948;5.922;2022-12-18T00:51:44;102827.47;;;-3.81;100.00
57568;BME280;43403;51.948;5.922;2022-12-18T00:54:11;102823.22;;;-3.80;100.00
57568;BME280;43403;51.948;5.922;2022-12-18T00:56:38;102839.44;;;-3.80;100.00
57568;BME280;43403;51.948;5.922;2022-12-18T00:59:14;102839.47;;;-3.86;100.00
57568;BME280;43403;51.948;5.922;2022-12-18T01:01:41;102829.22;;;-3.89;100.00
57568;BME280;43403;51.948;5.922;2022-12-18T01:04:08;102828.38;;;-3.92;100.00
57568;BME280;43403;51.948;5.922;2022-12-18T01:06:34;102833.53;;;-4.02;100.00
57568;BME280;43403;51.948;5.922;2022-12-18T01:09:01;102842.94;;;-4.05;100.00
57568;BME280;43403;51.948;5.922;2022-12-18T01:11:28;102845.50;;;-4.07;100.00
57568;BME280;43403;51.948;5.922;2022-12-18T01:13:55;102820.72;;;-4.12;100.00
57568;BME280;43403;51.948;5.922;2022-12-18T01:16:22;102822.44;;;-4.18;100.00
57568;BME280;43403;51.948;5.922;2022-12-18T01:18:52;102816.47;;;-4.23;100.00
57568;BME280;43403;51.948;5.922;2022-12-18T01:21:20;102818.19;;;-4.23;100.00
57568;BME280;43403;51.948;5.922;2022-12-18T01:23:50;102812.22;;;-4.27;100.00
57568;BME280;43403;51.948;5.922;2022-12-18T01:26:16;102808.78;;;-4.27;100.00
57568;BME280;43403;51.948;5.922;2022-12-18T01:28:43;102813.06;;;-4.23;100.00
57568;BME280;43403;51.948;5.922;2022-12-18T01:31:19;102812.19;;;-4.22;100.00
57568;BME280;43403;51.948;5.922;2022-12-18T01:33:47;102806.25;;;-4.29;100.00
57568;BME280;43403;51.948;5.922;2022-12-18T01:38:45;102826.75;;;-4.38;100.00
57568;BME280;43403;51.948;5.922;2022-12-18T01:41:12;102828.47;;;-4.39;100.00
57568;BME280;43403;51.948;5.922;2022-12-18T01:44:46;102828.44;;;-4.34;100.00
57568;BME280;43403;51.948;5.922;2022-12-18T01:46:51;102834.44;;;-4.46;100.00
57568;BME280;43403;51.948;5.922;2022-12-18T01:49:18;102828.47;;;-4.45;100.00
57568;BME280;43403;51.948;5.922;2022-12-18T01:51:44;102829.31;;;-4.47;100.00
57568;BME280;43403;51.948;5.922;2022-12-18T01:54:10;102832.72;;;-4.48;100.00
57568;BME280;43403;51.948;5.922;2022-12-18T01:56:37;102827.59;;;-4.48;100.00
57568;BME280;43403;51.948;5.922;2022-12-18T01:59:05;102824.16;;;-4.49;100.00
57568;BME280;43403;51.948;5.922;2022-12-18T02:01:36;102822.50;;;-4.48;100.00
57568;BME280;43403;51.948;5.922;2022-12-18T02:04:25;102828.47;;;-4.46;100.00
57568;BME280;43403;51.948;5.922;2022-12-18T02:09:29;102829.31;;;-4.50;100.00
57568;BME280;43403;51.948;5.922;2022-12-18T02:14:49;102832.72;;;-4.62;100.00
57568;BME280;43403;51.948;5.922;2022-12-18T02:17:22;102830.16;;;-4.73;100.00
57568;BME280;43403;51.948;5.922;2022-12-18T02:27:40;65435.88;;;-145.50;100.00
57568;BME280;43403;51.948;5.922;2022-12-18T02:30:10;65435.88;;;-145.50;100.00
57568;BME280;43403;51.948;5.922;2022-12-18T02:32:40;65435.88;;;-145.50;100.00
57568;BME280;43403;51.948;5.922;2022-12-18T02:35:13;65435.88;;;-145.50;100.00
57568;BME280;43403;51.948;5.922;2022-12-18T02:37:43;65435.88;;;-145.50;100.00
57568;BME280;43403;51.948;5.922;2022-12-18T02:40:12;65435.88;;;-145.50;100.00
57568;BME280;43403;51.948;5.922;2022-12-18T02:42:40;65435.88;;;-145.50;100.00
57568;BME280;43403;51.948;5.922;2022-12-18T02:45:06;65435.88;;;-145.50;100.00
57568;BME280;43403;51.948;5.922;2022-12-18T02:47:36;65435.88;;;-145.50;100.00
57568;BME280;43403;51.948;5.922;2022-12-18T02:50:08;65435.88;;;-145.50;100.00
57568;BME280;43403;51.948;5.922;2022-12-18T02:55:23;65435.88;;;-145.50;100.00
57568;BME280;43403;51.948;5.922;2022-12-18T02:58:16;65435.88;;;-145.50;100.00
57568;BME280;43403;51.948;5.922;2022-12-18T03:00:56;65435.88;;;-145.50;100.00
57568;BME280;43403;51.948;5.922;2022-12-18T03:03:30;65435.88;;;-145.50;100.00
57568;BME280;43403;51.948;5.922;2022-12-18T03:06:02;65435.88;;;-145.50;100.00
57568;BME280;43403;51.948;5.922;2022-12-18T03:08:38;65435.88;;;-145.50;100.00
57568;BME280;43403;51.948;5.922;2022-12-18T03:11:08;65435.88;;;-145.50;100.00
57568;BME280;43403;51.948;5.922;2022-12-18T03:13:51;65435.88;;;-145.50;100.00
57568;BME280;43403;51.948;5.922;2022-12-18T03:16:24;65435.88;;;-145.50;100.00
57568;BME280;43403;51.948;5.922;2022-12-18T03:18:56;65435.88;;;-145.50;100.00
57568;BME280;43403;51.948;5.922;2022-12-18T03:21:35;65435.88;;;-145.50;100.00
57568;BME280;43403;51.948;5.922;2022-12-18T03:24:06;65435.88;;;-145.50;100.00
57568;BME280;43403;51.948;5.922;2022-12-18T03:26:37;65435.88;;;-145.50;100.00
57568;BME280;43403;51.948;5.922;2022-12-18T03:29:09;65435.88;;;-145.50;100.00
57568;BME280;43403;51.948;5.922;2022-12-18T03:31:40;65435.88;;;-145.50;100.00
57568;BME280;43403;51.948;5.922;2022-12-18T03:34:13;65435.88;;;-145.50;100.00
57568;BME280;43403;51.948;5.922;2022-12-18T03:36:41;65435.88;;;-145.50;100.00
57568;BME280;43403;51.948;5.922;2022-12-18T03:39:07;65435.88;;;-145.50;100.00
57568;BME280;43403;51.948;5.922;2022-12-18T03:41:43;65435.88;;;-145.50;100.00
57568;BME280;43403;51.948;5.922;2022-12-18T03:44:14;65435.88;;;-145.50;100.00
57568;BME280;43403;51.948;5.922;2022-12-18T03:52:32;65435.88;;;-145.50;100.00
57568;BME280;43403;51.948;5.922;2022-12-18T03:55:03;65435.88;;;-145.50;100.00
57568;BME280;43403;51.948;5.922;2022-12-18T03:57:32;65435.88;;;-145.50;100.00
57568;BME280;43403;51.948;5.922;2022-12-18T04:00:12;65435.88;;;-145.50;100.00
57568;BME280;43403;51.948;5.922;2022-12-18T04:02:43;65435.88;;;-145.50;100.00
57568;BME280;43403;51.948;5.922;2022-12-18T04:05:11;65435.88;;;-145.50;100.00
57568;BME280;43403;51.948;5.922;2022-12-18T04:07:39;65435.88;;;-145.50;100.00
57568;BME280;43403;51.948;5.922;2022-12-18T04:10:07;65435.88;;;-145.50;100.00
57568;BME280;43403;51.948;5.922;2022-12-18T04:12:37;65435.88;;;-145.50;100.00
57568;BME280;43403;51.948;5.922;2022-12-18T04:15:04;65435.88;;;-145.50;100.00
57568;BME280;43403;51.948;5.922;2022-12-18T04:17:30;65435.88;;;-145.50;100.00
57568;BME280;43403;51.948;5.922;2022-12-18T04:19:57;65435.88;;;-145.50;100.00
57568;BME280;43403;51.948;5.922;2022-12-18T04:22:23;65435.88;;;-145.50;100.00
57568;BME280;43403;51.948;5.922;2022-12-18T04:24:49;65435.88;;;-145.50;100.00
57568;BME280;43403;51.948;5.922;2022-12-18T04:27:16;65435.88;;;-145.50;100.00
57568;BME280;43403;51.948;5.922;2022-12-18T04:29:42;65435.88;;;-145.50;100.00
57568;BME280;43403;51.948;5.922;2022-12-18T04:32:09;65435.88;;;-145.50;100.00
57568;BME280;43403;51.948;5.922;2022-12-18T04:34:35;65435.88;;;-145.50;100.00
57568;BME280;43403;51.948;5.922;2022-12-18T04:37:02;65435.88;;;-145.50;100.00
57568;BME280;43403;51.948;5.922;2022-12-18T04:39:28;65435.88;;;-145.50;100.00
57568;BME280;43403;51.948;5.922;2022-12-18T04:41:55;65435.88;;;-145.50;100.00
57568;BME280;43403;51.948;5.922;2022-12-18T04:44:22;65435.88;;;-145.50;100.00
57568;BME280;43403;51.948;5.922;2022-12-18T04:46:48;65435.88;;;-145.50;100.00
57568;BME280;43403;51.948;5.922;2022-12-18T04:49:15;65435.88;;;-145.50;100.00
57568;BME280;43403;51.948;5.922;2022-12-18T04:51:41;65435.88;;;-145.50;100.00
57568;BME280;43403;51.948;5.922;2022-12-18T04:54:08;65435.88;;;-145.50;100.00
57568;BME280;43403;51.948;5.922;2022-12-18T04:56:34;65435.88;;;-145.50;100.00
57568;BME280;43403;51.948;5.922;2022-12-18T04:59:01;65435.88;;;-145.50;100.00
57568;BME280;43403;51.948;5.922;2022-12-18T05:01:27;65435.88;;;-145.50;100.00
57568;BME280;43403;51.948;5.922;2022-12-18T05:04:00;65435.88;;;-145.50;100.00
57568;BME280;43403;51.948;5.922;2022-12-18T05:06:27;65435.88;;;-145.50;100.00
57568;BME280;43403;51.948;5.922;2022-12-18T05:08:53;65435.88;;;-145.50;100.00
57568;BME280;43403;51.948;5.922;2022-12-18T05:11:20;65435.88;;;-145.50;100.00
57568;BME280;43403;51.948;5.922;2022-12-18T05:13:46;65435.88;;;-145.50;100.00
57568;BME280;43403;51.948;5.922;2022-12-18T05:16:13;65435.88;;;-145.50;100.00
57568;BME280;43403;51.948;5.922;2022-12-18T05:18:41;65435.88;;;-145.50;100.00
57568;BME280;43403;51.948;5.922;2022-12-18T05:21:07;65435.88;;;-145.50;100.00
57568;BME280;43403;51.948;5.922;2022-12-18T05:23:34;65435.88;;;-145.50;100.00
57568;BME280;43403;51.948;5.922;2022-12-18T05:26:03;65435.88;;;-145.50;100.00
57568;BME280;43403;51.948;5.922;2022-12-18T05:28:32;65435.88;;;-145.50;100.00
57568;BME280;43403;51.948;5.922;2022-12-18T05:31:00;65435.88;;;-145.50;100.00
57568;BME280;43403;51.948;5.922;2022-12-18T05:33:30;65435.88;;;-145.50;100.00
57568;BME280;43403;51.948;5.922;2022-12-18T05:36:04;65435.88;;;-145.50;100.00
57568;BME280;43403;51.948;5.922;2022-12-18T05:38:32;65435.88;;;-145.50;100.00
57568;BME280;43403;51.948;5.922;2022-12-18T05:40:59;65435.88;;;-145.50;100.00
57568;BME280;43403;51.948;5.922;2022-12-18T05:43:26;65435.88;;;-145.50;100.00
57568;BME280;43403;51.948;5.922;2022-12-18T05:45:53;65435.88;;;-145.50;100.00
57568;BME280;43403;51.948;5.922;2022-12-18T05:48:21;65435.88;;;-145.50;100.00
57568;BME280;43403;51.948;5.922;2022-12-18T05:50:49;65435.88;;;-145.50;100.00
57568;BME280;43403;51.948;5.922;2022-12-18T05:53:18;65435.88;;;-145.50;100.00
57568;BME280;43403;51.948;5.922;2022-12-18T05:55:45;65435.88;;;-145.50;100.00
57568;BME280;43403;51.948;5.922;2022-12-18T05:58:13;65435.88;;;-145.50;100.00
57568;BME280;43403;51.948;5.922;2022-12-18T06:00:43;65435.88;;;-145.50;100.00
57568;BME280;43403;51.948;5.922;2022-12-18T06:03:10;65435.88;;;-145.50;100.00
57568;BME280;43403;51.948;5.922;2022-12-18T06:05:39;65435.88;;;-145.50;100.00
57568;BME280;43403;51.948;5.922;2022-12-18T06:08:06;65435.88;;;-145.50;100.00
57568;BME280;43403;51.948;5.922;2022-12-18T06:10:33;65435.88;;;-145.50;100.00
57568;BME280;43403;51.948;5.922;2022-12-18T06:13:00;65435.88;;;-145.50;100.00
57568;BME280;43403;51.948;5.922;2022-12-18T06:15:26;65435.88;;;-145.50;100.00
57568;BME280;43403;51.948;5.922;2022-12-18T06:17:52;65435.88;;;-145.50;100.00
57568;BME280;43403;51.948;5.922;2022-12-18T06:20:19;65435.88;;;-145.50;100.00
57568;BME280;43403;51.948;5.922;2022-12-18T06:22:46;65435.88;;;-145.50;100.00
57568;BME280;43403;51.948;5.922;2022-12-18T06:25:12;65435.88;;;-145.50;100.00
57568;BME280;43403;51.948;5.922;2022-12-18T06:27:39;65435.88;;;-145.50;100.00
57568;BME280;43403;51.948;5.922;2022-12-18T06:30:07;65435.88;;;-145.50;100.00
57568;BME280;43403;51.948;5.922;2022-12-18T06:32:34;65435.88;;;-145.50;100.00
57568;BME280;43403;51.948;5.922;2022-12-18T06:35:01;65435.88;;;-145.50;100.00
57568;BME280;43403;51.948;5.922;2022-12-18T06:37:27;65435.88;;;-145.50;100.00
57568;BME280;43403;51.948;5.922;2022-12-18T06:39:54;65435.88;;;-145.50;100.00
57568;BME280;43403;51.948;5.922;2022-12-18T06:42:20;65435.88;;;-145.50;100.00
57568;BME280;43403;51.948;5.922;2022-12-18T06:44:48;65435.88;;;-145.50;100.00
57568;BME280;43403;51.948;5.922;2022-12-18T06:47:14;65435.88;;;-145.50;100.00
57568;BME280;43403;51.948;5.922;2022-12-18T06:49:41;65435.88;;;-145.50;100.00
57568;BME280;43403;51.948;5.922;2022-12-18T06:52:07;65435.88;;;-145.50;100.00
57568;BME280;43403;51.948;5.922;2022-12-18T06:54:33;65435.88;;;-145.50;100.00
57568;BME280;43403;51.948;5.922;2022-12-18T06:57:00;65435.88;;;-145.50;100.00
57568;BME280;43403;51.948;5.922;2022-12-18T06:59:26;65435.88;;;-145.50;100.00
57568;BME280;43403;51.948;5.922;2022-12-18T07:01:53;65435.88;;;-145.50;100.00
57568;BME280;43403;51.948;5.922;2022-12-18T07:04:20;65435.88;;;-145.50;100.00
57568;BME280;43403;51.948;5.922;2022-12-18T07:06:46;65435.88;;;-145.50;100.00
57568;BME280;43403;51.948;5.922;2022-12-18T07:09:12;65435.88;;;-145.50;100.00
57568;BME280;43403;51.948;5.922;2022-12-18T07:11:39;65435.88;;;-145.50;100.00
57568;BME280;43403;51.948;5.922;2022-12-18T07:14:05;65435.88;;;-145.50;100.00
57568;BME280;43403;51.948;5.922;2022-12-18T07:16:31;65435.88;;;-145.50;100.00
57568;BME280;43403;51.948;5.922;2022-12-18T07:18:58;65435.88;;;-145.50;100.00
57568;BME280;43403;51.948;5.922;2022-12-18T07:21:24;65435.88;;;-145.50;100.00
57568;BME280;43403;51.948;5.922;2022-12-18T07:23:51;65435.88;;;-145.50;100.00
57568;BME280;43403;51.948;5.922;2022-12-18T07:26:20;65435.88;;;-145.50;100.00
57568;BME280;43403;51.948;5.922;2022-12-18T07:28:47;65435.88;;;-145.50;100.00
57568;BME280;43403;51.948;5.922;2022-12-18T07:31:19;65435.88;;;-145.50;100.00
57568;BME280;43403;51.948;5.922;2022-12-18T07:33:47;65435.88;;;-145.50;100.00
57568;BME280;43403;51.948;5.922;2022-12-18T07:36:14;65435.88;;;-145.50;100.00
57568;BME280;43403;51.948;5.922;2022-12-18T07:38:41;65435.88;;;-145.50;100.00
57568;BME280;43403;51.948;5.922;2022-12-18T07:41:10;65435.88;;;-145.50;100.00
57568;BME280;43403;51.948;5.922;2022-12-18T07:43:38;65435.88;;;-145.50;100.00
57568;BME280;43403;51.948;5.922;2022-12-18T07:46:06;65435.88;;;-145.50;100.00
57568;BME280;43403;51.948;5.922;2022-12-18T07:48:33;65435.88;;;-145.50;100.00
57568;BME280;43403;51.948;5.922;2022-12-18T07:51:04;65435.88;;;-145.50;100.00
57568;BME280;43403;51.948;5.922;2022-12-18T07:53:32;65435.88;;;-145.50;100.00
57568;BME280;43403;51.948;5.922;2022-12-18T07:56:00;65435.88;;;-145.50;100.00
57568;BME280;43403;51.948;5.922;2022-12-18T07:58:48;65435.88;;;-145.50;100.00
57568;BME280;43403;51.948;5.922;2022-12-18T08:01:14;65435.88;;;-145.50;100.00
57568;BME280;43403;51.948;5.922;2022-12-18T08:03:41;65435.88;;;-145.50;100.00
57568;BME280;43403;51.948;5.922;2022-12-18T08:06:09;65435.88;;;-145.50;100.00
57568;BME280;43403;51.948;5.922;2022-12-18T08:08:36;65435.88;;;-145.50;100.00
57568;BME280;43403;51.948;5.922;2022-12-18T08:11:03;65435.88;;;-145.50;100.00
57568;BME280;43403;51.948;5.922;2022-12-18T08:13:29;65435.88;;;-145.50;100.00
57568;BME280;43403;51.948;5.922;2022-12-18T08:16:04;102829.28;;;-4.81;100.00
57568;BME280;43403;51.948;5.922;2022-12-18T08:18:33;102651.72;;;-4.55;100.00
57568;BME280;43403;51.948;5.922;2022-12-18T08:21:10;102655.97;;;-4.48;100.00
57568;BME280;43403;51.948;5.922;2022-12-18T08:23:37;102661.06;;;-4.44;100.00
57568;BME280;43403;51.948;5.922;2022-12-18T08:26:09;102661.09;;;-4.41;100.00
57568;BME280;43403;51.948;5.922;2022-12-18T08:28:36;102656.81;;;-4.39;100.00
57568;BME280;43403;51.948;5.922;2022-12-18T08:31:03;102650.81;;;-4.33;100.00
57568;BME280;43403;51.948;5.922;2022-12-18T08:33:30;102646.47;;;-4.22;100.00
57568;BME280;43403;51.948;5.922;2022-12-18T08:35:58;102638.75;;;-4.12;100.00
57568;BME280;43403;51.948;5.922;2022-12-18T08:38:24;102637.91;;;-4.13;100.00
57568;BME280;43403;51.948;5.922;2022-12-18T08:40:58;102642.97;;;-4.01;100.00
57568;BME280;43403;51.948;5.922;2022-12-18T08:43:25;102639.50;;;-3.97;100.00
57568;BME280;43403;51.948;5.922;2022-12-18T08:46:11;102651.41;;;-3.83;100.00
57568;BME280;43403;51.948;5.922;2022-12-18T08:48:38;102641.94;;;-3.75;100.00
57568;BME280;43403;51.948;5.922;2022-12-18T08:51:04;102650.44;;;-3.61;100.00
57568;BME280;43403;51.948;5.922;2022-12-18T08:53:31;102644.31;;;-3.46;100.00
57568;BME280;43403;51.948;5.922;2022-12-18T08:56:01;102651.06;;;-3.35;100.00
57568;BME280;43403;51.948;5.922;2022-12-18T08:58:27;102653.59;;;-3.29;100.00
57568;BME280;43403;51.948;5.922;2022-12-18T09:00:54;102645.81;;;-3.22;100.00
57568;BME280;43403;51.948;5.922;2022-12-18T09:03:20;102647.50;;;-3.16;100.00
57568;BME280;43403;51.948;5.922;2022-12-18T09:05:48;102649.16;;;-3.07;100.00
57568;BME280;43403;51.948;5.922;2022-12-18T09:08:15;102645.63;;;-2.99;100.00
57568;BME280;43403;51.948;5.922;2022-12-18T09:10:43;102648.06;;;-2.86;100.00
57568;BME280;43403;51.948;5.922;2022-12-18T09:13:10;102655.75;;;-2.80;100.00
57568;BME280;43403;51.948;5.922;2022-12-18T09:15:53;102651.38;;;-2.72;100.00
57568;BME280;43403;51.948;5.922;2022-12-18T09:18:21;102646.19;;;-2.69;100.00
57568;BME280;43403;51.948;5.922;2022-12-18T09:20:48;102647.06;;;-2.68;100.00
57568;BME280;43403;51.948;5.922;2022-12-18T09:23:14;102641.84;;;-2.61;100.00
57568;BME280;43403;51.948;5.922;2022-12-18T09:25:40;102629.78;;;-2.55;100.00
57568;BME280;43403;51.948;5.922;2022-12-18T09:28:14;102636.50;;;-2.45;100.00
57568;BME280;43403;51.948;5.922;2022-12-18T09:30:44;102633.00;;;-2.38;100.00
57568;BME280;43403;51.948;5.922;2022-12-18T09:33:10;102641.44;;;-2.28;100.00
57568;BME280;43403;51.948;5.922;2022-12-18T09:35:39;102643.94;;;-2.22;100.00
57568;BME280;43403;51.948;5.922;2022-12-18T09:38:07;102639.59;;;-2.17;100.00
57568;BME280;43403;51.948;5.922;2022-12-18T09:40:39;102640.38;;;-2.12;100.00
57568;BME280;43403;51.948;5.922;2022-12-18T09:43:17;102629.13;;;-2.03;100.00
57568;BME280;43403;51.948;5.922;2022-12-18T09:45:47;102636.75;;;-1.97;100.00
57568;BME280;43403;51.948;5.922;2022-12-18T09:48:23;102632.44;;;-1.93;100.00
57568;BME280;43403;51.948;5.922;2022-12-18T09:50:57;102625.47;;;-1.87;100.00
57568;BME280;43403;51.948;5.922;2022-12-18T09:53:27;102628.00;;;-1.85;100.00
57568;BME280;43403;51.948;5.922;2022-12-18T09:55:56;102622.88;;;-1.85;100.00
57568;BME280;43403;51.948;5.922;2022-12-18T09:58:41;102621.03;;;-1.77;100.00
57568;BME280;43403;51.948;5.922;2022-12-18T10:01:16;102624.38;;;-1.70;100.00
57568;BME280;43403;51.948;5.922;2022-12-18T10:03:44;102618.31;;;-1.68;100.00
57568;BME280;43403;51.948;5.922;2022-12-18T10:06:15;102605.28;;;-1.57;100.00
57568;BME280;43403;51.948;5.922;2022-12-18T10:08:46;102599.16;;;-1.50;100.00
57568;BME280;43403;51.948;5.922;2022-12-18T10:14:20;102604.28;;;-1.47;100.00
57568;BME280;43403;51.948;5.922;2022-12-18T10:17:07;102604.19;;;-1.42;100.00
57568;BME280;43403;51.948;5.922;2022-12-18T10:19:40;102603.28;;;-1.40;100.00
57568;BME280;43403;51.948;5.922;2022-12-18T10:24:59;102591.09;;;-1.28;100.00
57568;BME280;43403;51.948;5.922;2022-12-18T10:27:28;102587.53;;;-1.20;100.00
57568;BME280;43403;51.948;5.922;2022-12-18T10:29:55;102578.03;;;-1.17;100.00
57568;BME280;43403;51.948;5.922;2022-12-18T10:32:27;102568.41;;;-1.08;100.00
57568;BME280;43403;51.948;5.922;2022-12-18T10:34:56;102575.28;;;-1.08;100.00
57568;BME280;43403;51.948;5.922;2022-12-18T10:37:29;102568.22;;;-0.98;100.00
57568;BME280;43403;51.948;5.922;2022-12-18T10:42:34;102565.59;;;-0.94;98.72
57568;BME280;43403;51.948;5.922;2022-12-18T10:45:03;102553.53;;;-0.93;100.00
57568;BME280;43403;51.948;5.922;2022-12-18T10:47:30;102568.06;;;-0.89;99.87
57568;BME280;43403;51.948;5.922;2022-12-18T10:49:56;102560.09;;;-0.78;99.73
57568;BME280;43403;51.948;5.922;2022-12-18T10:52:24;102553.97;;;-0.71;97.32
57568;BME280;43403;51.948;5.922;2022-12-18T10:54:55;102543.59;;;-0.68;96.44
57568;BME280;43403;51.948;5.922;2022-12-18T10:59:54;102531.44;;;-0.63;97.01
57568;BME280;43403;51.948;5.922;2022-12-18T11:02:39;102538.03;;;-0.50;96.82
57568;BME280;43403;51.948;5.922;2022-12-18T11:05:28;102538.78;;;-0.43;96.28
57568;BME280;43403;51.948;5.922;2022-12-18T11:07:55;102534.50;;;-0.46;95.66
57568;BME280;43403;51.948;5.922;2022-12-18T11:10:28;102530.97;;;-0.40;96.77
57568;BME280;43403;51.948;5.922;2022-12-18T11:12:55;102533.53;;;-0.40;95.12
57568;BME280;43403;51.948;5.922;2022-12-18T11:15:29;102529.84;;;-0.28;96.22
57568;BME280;43403;51.948;5.922;2022-12-18T11:17:56;102530.78;;;-0.32;95.01
57568;BME280;43403;51.948;5.922;2022-12-18T11:20:27;102524.78;;;-0.33;93.19
57568;BME280;43403;51.948;5.922;2022-12-18T11:22:58;102519.22;;;-0.14;97.44
57568;BME280;43403;51.948;5.922;2022-12-18T11:25:25;102515.19;;;-0.26;92.77
57568;BME280;43403;51.948;5.922;2022-12-18T11:28:04;102504.69;;;-0.18;94.95
57568;BME280;43403;51.948;5.922;2022-12-18T11:30:36;102489.19;;;-0.17;94.62
57568;BME280;43403;51.948;5.922;2022-12-18T11:33:05;102491.66;;;-0.14;94.62
57568;BME280;43403;51.948;5.922;2022-12-18T11:36:02;102487.25;;;-0.09;93.62
57568;BME280;43403;51.948;5.922;2022-12-18T11:38:32;102480.22;;;-0.02;94.13
57568;BME280;43403;51.948;5.922;2022-12-18T11:41:12;102484.50;;;-0.01;91.98
57568;BME280;43403;51.948;5.922;2022-12-18T11:43:50;102482.72;;;0.01;94.04
57568;BME280;43403;51.948;5.922;2022-12-18T11:46:26;102487.66;;;0.10;93.43
57568;BME280;43403;51.948;5.922;2022-12-18T11:49:20;102486.81;;;0.10;90.92
57568;BME280;43403;51.948;5.922;2022-12-18T11:51:53;102478.03;;;0.17;92.92
57568;BME280;43403;51.948;5.922;2022-12-18T11:54:21;102483.34;;;0.11;90.43
57568;BME280;43403;51.948;5.922;2022-12-18T11:56:51;102478.00;;;0.18;90.10
57568;BME280;43403;51.948;5.922;2022-12-18T12:05:57;102462.19;;;0.31;91.22
57568;BME280;43403;51.948;5.922;2022-12-18T12:08:15;102457.00;;;0.32;89.83
57568;BME280;43403;51.948;5.922;2022-12-18T12:11:07;102446.63;;;0.34;89.02
57568;BME280;43403;51.948;5.922;2022-12-18T12:14:01;102439.56;;;0.41;89.44
57568;BME280;43403;51.948;5.922;2022-12-18T12:22:32;102431.66;;;0.47;87.88
57568;BME280;43403;51.948;5.922;2022-12-18T12:30:45;102438.22;;;0.58;86.97
57568;BME280;43403;51.948;5.922;2022-12-18T12:33:35;102434.72;;;0.61;86.68
57568;BME280;43403;51.948;5.922;2022-12-18T12:36:22;102427.00;;;0.59;87.45
57568;BME280;43403;51.948;5.922;2022-12-18T12:38:55;102431.34;;;0.59;87.68
57568;BME280;43403;51.948;5.922;2022-12-18T12:41:26;102427.94;;;0.57;85.93
57568;BME280;43403;51.948;5.922;2022-12-18T12:44:24;102418.34;;;0.61;86.89
57568;BME280;43403;51.948;5.922;2022-12-18T12:46:56;102407.19;;;0.60;87.19
57568;BME280;43403;51.948;5.922;2022-12-18T12:49:27;102392.63;;;0.57;85.98
57568;BME280;43403;51.948;5.922;2022-12-18T12:52:07;102401.09;;;0.63;85.39
57568;BME280;43403;51.948;5.922;2022-12-18T12:54:37;102397.75;;;0.59;86.80
57568;BME280;43403;51.948;5.922;2022-12-18T12:57:24;102394.81;;;0.71;88.74
57568;BME280;43403;51.948;5.922;2022-12-18T13:00:09;102386.31;;;0.68;85.35
57568;BME280;43403;51.948;5.922;2022-12-18T13:05:28;102372.59;;;0.66;84.99
57568;BME280;43403;51.948;5.922;2022-12-18T13:08:02;102377.75;;;0.66;84.69
57568;BME280;43403;51.948;5.922;2022-12-18T13:10:35;102373.41;;;0.68;85.97
57568;BME280;43403;51.948;5.922;2022-12-18T13:13:06;102369.97;;;0.67;85.15
57568;BME280;43403;51.948;5.922;2022-12-18T13:20:40;102368.28;;;0.66;84.74
57568;BME280;43403;51.948;5.922;2022-12-18T13:31:01;102356.91;;;0.72;84.35
57568;BME280;43403;51.948;5.922;2022-12-18T13:33:46;102366.25;;;0.76;83.59
57568;BME280;43403;51.948;5.922;2022-12-18T13:36:33;102357.06;;;0.67;82.66
57568;BME280;43403;51.948;5.922;2022-12-18T13:39:33;102359.50;;;0.72;83.67
57568;BME280;43403;51.948;5.922;2022-12-18T13:44:38;102358.50;;;0.76;82.93
57568;BME280;43403;51.948;5.922;2022-12-18T13:47:27;102356.88;;;0.73;81.76
57568;BME280;43403;51.948;5.922;2022-12-18T13:49:57;102353.13;;;0.84;83.15
57568;BME280;43403;51.948;5.922;2022-12-18T13:52:34;102339.44;;;0.80;83.60
57568;BME280;43403;51.948;5.922;2022-12-18T13:55:07;102339.41;;;0.82;83.61
57568;BME280;43403;51.948;5.922;2022-12-18T13:57:41;102332.56;;;0.81;84.83
57568;BME280;43403;51.948;5.922;2022-12-18T14:00:24;102337.72;;;0.81;81.73
57568;BME280;43403;51.948;5.922;2022-12-18T14:02:51;102333.63;;;0.73;82.06
57568;BME280;43403;51.948;5.922;2022-12-18T14:05:32;102324.25;;;0.71;81.23
57568;BME280;43403;51.948;5.922;2022-12-18T14:08:08;102327.47;;;0.77;82.50